Hampton, VA (23666)

4:42 PM EDT on April 28, 2017 (GMT -0400)
Northampton | | Change Station

Elev 23 ft 37.05 °N, 76.42 °W | Updated 12 minutes ago

Clear
Clear
87.4 °F
Feels Like 92 °F
N
5.4
Wind Variable Wind from South
Gusts 9.2 mph

Today
High -- | Low -- °F
--% Chance of Precip.
Yesterday
High -- | Low -- °F
Precip. -- in
Pressure 30.05 in
Visibility 9.0 miles
Clouds Few 4000 ft
Heat Index 92 °F
Dew Point 70 °F
Humidity 56%
Rainfall 0.00 in
Snow Depth Not available.
6:14 AM 7:52 PM
Waxing Crescent, 8% visible
METAR KLFI 281958Z AUTO 23007KT 9SM FEW040 30/21 A3003 RMK AO2 SLP176 T02950214 $
Pressure 30.05 in
Visibility 9.0 miles
Clouds Few 4000 ft
Heat Index 92 °F
Dew Point 70 °F
Humidity 56%
Rainfall 0.00 in
Snow Depth Not available.
6:14 AM 7:52 PM
Waxing Crescent, 8% visible
METAR KLFI 281958Z AUTO 23007KT 9SM FEW040 30/21 A3003 RMK AO2 SLP176 T02950214 $

Get Severe Weather Alerts

Thanks for signing up!

Be on the lookout for a verification email in your inbox.

You'll start receiving the daily forecast at 8 AM.

×

10-Day Weather Forecast

Almanac

Astronomy

Apr. 28, 2017 Rise Set
Actual Time
Civil Twilight
Nautical Twilight
Astronomical Twilight
Moon
Length of Visible Light
Length of Day
Tomorrow will be .
, % of the Moon is Illuminated

Today's Extremes

State Highs State Lows

Community

WunderPhotos

WunderBlog® & News

Nearby

Air Quality

  Air Quality AQ Index Pollutant
Not available.

Snow Depth

Station Depth Elevation

Earthquake Activity

City Distance Mag. Time & Date
Minimum magnitude displayed is 2.5.

Coastal Water Temperatures

Place Temperature

Stations

Nearby Weather Stations

Station Location Temp. Windchill Dew Point Humidity Wind Precip. Elev Updated Type
                   

Watches & Warnings

There are currently no watches in effect.